22:24
Airports
History
Links
Donate
Help keep this website running!
PayPal
Bitcoin
Information on this page is community maintained and may be outdated or inaccurate and is intended for reference only or PC simulator navigating.
Always use approved charts for navigating.
CBA4
Midway
Midway (CBA4)
Fort McPherson, Northwest Territories, Canada
(C)
Lat/Lng:67° 14' 28.36" N / 135° 18' 9.39" W
67.241211 / -135.302607
Elevation:1594'ft 486mMSL
ID / ICAO:CBA4
Runways:1
Longest:(09-27) 1,110.4m 3,643ft Dirt
Controlled:Yes
Distance To
Airport ID:
Nearby VORs <50NM
Nearby NDBs
Nearby WeatherUpdated 07-25-17 22:00 GMT
Nearby weather at CZFM, FORT MCPHERSON located 16.5 nautical miles from CBA4
Altimeter: 30.00
Visibility: 10.0 statute miles
Wind: 6 knots (360°)
Temp: 11°c 52°f
Humidity: 81.7%

METAR: CZFM 252200Z 36006KT 320V020 10SM BKN018 OVC024 11/08 A3000 RMK SC6SC2 CIG RAG SLP161

(Powered by phpweather)
Runway 09 / 27
Dimensions:1110.4 x 29.9m 3643' x 98'ft
Surface:Dirt
Runway 09 [A]Runway 27 [B]
Heading:087°TH 267°TH
Lat:
Lng:
67° 14' 27.43"N
135° 18' 55.67"W
67° 14' 29.28"N
135° 17' 23.09"W
User Notes and Comments
Google Map
Nearby Airports
4 FORT MCPHERSON 16.5 NM
CZFM (WX) NE 45°
4 Eagle Plains 62.4 NM
AJ2 SSW 213°
4 Aklavik 68.3 NM
CYKD N
(U) INUVIK MIKE ZUBKO 87.5 NM
CYEV (WX) NNE 32°
4 Old Crow 122.5 NM
CYOC (WX) W 280°
4 Oglivie River 133.2 NM
CFS4 SW 215°
4 TUKTOYAKTUK 162.2 NM
CYUB (WX) NNE 20°
VFR Chart
Flight Planning at SkyVector.com